sensor_id;sensor_type;location;lat;lon;timestamp;P1;durP1;ratioP1;P2;durP2;ratioP2
52730;SDS011;38624;53.242;6.974;2023-09-18T00:10:25;75.97;;;49.38;;
52730;SDS011;38624;53.242;6.974;2023-09-18T00:12:55;90.57;;;54.08;;
52730;SDS011;38624;53.242;6.974;2023-09-18T00:15:21;86.38;;;53.20;;
52730;SDS011;38624;53.242;6.974;2023-09-18T00:17:47;85.07;;;51.88;;
52730;SDS011;38624;53.242;6.974;2023-09-18T00:20:13;89.93;;;53.17;;
52730;SDS011;38624;53.242;6.974;2023-09-18T00:22:41;91.93;;;53.58;;
52730;SDS011;38624;53.242;6.974;2023-09-18T00:25:07;77.70;;;50.40;;
52730;SDS011;38624;53.242;6.974;2023-09-18T00:27:33;88.60;;;51.93;;
52730;SDS011;38624;53.242;6.974;2023-09-18T00:30:01;88.60;;;52.80;;
52730;SDS011;38624;53.242;6.974;2023-09-18T00:32:40;84.47;;;51.92;;
52730;SDS011;38624;53.242;6.974;2023-09-18T00:35:22;88.70;;;52.03;;
52730;SDS011;38624;53.242;6.974;2023-09-18T00:37:52;86.57;;;51.15;;
52730;SDS011;38624;53.242;6.974;2023-09-18T00:40:20;88.50;;;53.47;;
52730;SDS011;38624;53.242;6.974;2023-09-18T00:45:48;83.53;;;51.22;;
52730;SDS011;38624;53.242;6.974;2023-09-18T00:48:14;92.28;;;53.28;;
52730;SDS011;38624;53.242;6.974;2023-09-18T00:50:41;101.20;;;54.20;;
52730;SDS011;38624;53.242;6.974;2023-09-18T00:53:16;88.68;;;51.10;;
52730;SDS011;38624;53.242;6.974;2023-09-18T00:55:45;84.88;;;51.75;;
52730;SDS011;38624;53.242;6.974;2023-09-18T00:58:11;81.90;;;51.13;;
52730;SDS011;38624;53.242;6.974;2023-09-18T01:00:38;85.82;;;51.13;;
52730;SDS011;38624;53.242;6.974;2023-09-18T01:03:05;84.13;;;50.65;;
52730;SDS011;38624;53.242;6.974;2023-09-18T01:05:32;75.00;;;47.33;;
52730;SDS011;38624;53.242;6.974;2023-09-18T01:08:01;74.15;;;47.13;;
52730;SDS011;38624;53.242;6.974;2023-09-18T01:10:32;66.55;;;45.90;;
52730;SDS011;38624;53.242;6.974;2023-09-18T01:13:08;70.20;;;47.65;;
52730;SDS011;38624;53.242;6.974;2023-09-18T01:15:54;69.43;;;46.50;;
52730;SDS011;38624;53.242;6.974;2023-09-18T01:18:27;65.05;;;45.55;;
52730;SDS011;38624;53.242;6.974;2023-09-18T01:20:53;62.10;;;44.07;;
52730;SDS011;38624;53.242;6.974;2023-09-18T01:23:19;56.23;;;42.90;;
52730;SDS011;38624;53.242;6.974;2023-09-18T01:25:47;54.47;;;40.83;;
52730;SDS011;38624;53.242;6.974;2023-09-18T01:28:15;59.83;;;42.75;;
52730;SDS011;38624;53.242;6.974;2023-09-18T01:30:41;66.68;;;43.63;;
52730;SDS011;38624;53.242;6.974;2023-09-18T01:33:07;66.30;;;45.08;;
52730;SDS011;38624;53.242;6.974;2023-09-18T01:35:37;66.85;;;44.83;;
52730;SDS011;38624;53.242;6.974;2023-09-18T01:38:06;65.70;;;44.03;;
52730;SDS011;38624;53.242;6.974;2023-09-18T01:40:38;61.33;;;42.42;;
52730;SDS011;38624;53.242;6.974;2023-09-18T01:43:04;59.42;;;41.25;;
52730;SDS011;38624;53.242;6.974;2023-09-18T01:45:33;58.67;;;42.43;;
52730;SDS011;38624;53.242;6.974;2023-09-18T01:47:59;62.28;;;42.85;;
52730;SDS011;38624;53.242;6.974;2023-09-18T01:50:24;65.83;;;43.27;;
52730;SDS011;38624;53.242;6.974;2023-09-18T01:52:50;60.10;;;40.73;;
52730;SDS011;38624;53.242;6.974;2023-09-18T01:55:16;58.40;;;41.83;;
52730;SDS011;38624;53.242;6.974;2023-09-18T01:57:45;54.40;;;39.53;;
52730;SDS011;38624;53.242;6.974;2023-09-18T02:00:10;55.13;;;39.50;;
52730;SDS011;38624;53.242;6.974;2023-09-18T02:02:37;59.13;;;39.85;;
52730;SDS011;38624;53.242;6.974;2023-09-18T02:05:03;53.77;;;37.77;;
52730;SDS011;38624;53.242;6.974;2023-09-18T02:07:29;61.60;;;38.45;;
52730;SDS011;38624;53.242;6.974;2023-09-18T02:09:57;53.65;;;36.67;;
52730;SDS011;38624;53.242;6.974;2023-09-18T02:12:23;50.13;;;38.30;;
52730;SDS011;38624;53.242;6.974;2023-09-18T02:14:48;50.93;;;36.97;;
52730;SDS011;38624;53.242;6.974;2023-09-18T02:17:16;53.35;;;35.90;;
52730;SDS011;38624;53.242;6.974;2023-09-18T02:19:42;47.60;;;34.67;;
52730;SDS011;38624;53.242;6.974;2023-09-18T02:22:08;45.13;;;33.58;;
52730;SDS011;38624;53.242;6.974;2023-09-18T02:24:34;48.60;;;33.58;;
52730;SDS011;38624;53.242;6.974;2023-09-18T02:27:00;45.47;;;33.67;;
52730;SDS011;38624;53.242;6.974;2023-09-18T02:29:28;45.53;;;32.42;;
52730;SDS011;38624;53.242;6.974;2023-09-18T02:31:54;40.83;;;32.30;;
52730;SDS011;38624;53.242;6.974;2023-09-18T02:34:22;44.80;;;32.47;;
52730;SDS011;38624;53.242;6.974;2023-09-18T02:36:48;42.78;;;33.10;;
52730;SDS011;38624;53.242;6.974;2023-09-18T02:39:13;43.87;;;33.00;;
52730;SDS011;38624;53.242;6.974;2023-09-18T02:41:39;42.93;;;33.13;;
52730;SDS011;38624;53.242;6.974;2023-09-18T02:44:05;45.67;;;33.37;;
52730;SDS011;38624;53.242;6.974;2023-09-18T02:46:39;40.37;;;31.13;;
52730;SDS011;38624;53.242;6.974;2023-09-18T02:49:07;38.83;;;30.77;;
52730;SDS011;38624;53.242;6.974;2023-09-18T02:51:33;43.57;;;32.80;;
52730;SDS011;38624;53.242;6.974;2023-09-18T02:53:58;40.00;;;31.37;;
52730;SDS011;38624;53.242;6.974;2023-09-18T02:56:24;40.73;;;31.47;;
52730;SDS011;38624;53.242;6.974;2023-09-18T02:58:50;44.47;;;31.23;;
52730;SDS011;38624;53.242;6.974;2023-09-18T03:01:16;38.13;;;30.50;;
52730;SDS011;38624;53.242;6.974;2023-09-18T03:03:44;39.70;;;30.77;;
52730;SDS011;38624;53.242;6.974;2023-09-18T03:06:10;42.77;;;30.60;;
52730;SDS011;38624;53.242;6.974;2023-09-18T03:08:38;38.17;;;29.08;;
52730;SDS011;38624;53.242;6.974;2023-09-18T03:11:10;37.80;;;28.73;;
52730;SDS011;38624;53.242;6.974;2023-09-18T03:13:42;37.72;;;29.20;;
52730;SDS011;38624;53.242;6.974;2023-09-18T03:16:11;37.45;;;29.23;;
52730;SDS011;38624;53.242;6.974;2023-09-18T03:18:37;41.93;;;31.43;;
52730;SDS011;38624;53.242;6.974;2023-09-18T03:21:06;39.45;;;28.30;;
52730;SDS011;38624;53.242;6.974;2023-09-18T03:23:31;43.70;;;31.50;;
52730;SDS011;38624;53.242;6.974;2023-09-18T03:25:57;39.97;;;30.13;;
52730;SDS011;38624;53.242;6.974;2023-09-18T03:28:24;43.13;;;30.05;;
52730;SDS011;38624;53.242;6.974;2023-09-18T03:30:50;42.37;;;29.73;;
52730;SDS011;38624;53.242;6.974;2023-09-18T03:33:16;42.50;;;30.85;;
52730;SDS011;38624;53.242;6.974;2023-09-18T03:35:45;39.63;;;29.33;;
52730;SDS011;38624;53.242;6.974;2023-09-18T03:38:19;40.38;;;29.38;;
52730;SDS011;38624;53.242;6.974;2023-09-18T03:40:49;40.00;;;28.63;;
52730;SDS011;38624;53.242;6.974;2023-09-18T03:43:15;39.17;;;28.37;;
52730;SDS011;38624;53.242;6.974;2023-09-18T03:45:42;42.08;;;28.10;;
52730;SDS011;38624;53.242;6.974;2023-09-18T03:48:10;41.13;;;28.42;;
52730;SDS011;38624;53.242;6.974;2023-09-18T03:50:36;42.33;;;29.52;;
52730;SDS011;38624;53.242;6.974;2023-09-18T03:53:03;41.72;;;29.65;;
52730;SDS011;38624;53.242;6.974;2023-09-18T03:55:31;38.38;;;28.63;;
52730;SDS011;38624;53.242;6.974;2023-09-18T03:58:00;44.55;;;30.48;;
52730;SDS011;38624;53.242;6.974;2023-09-18T04:00:26;44.72;;;30.20;;
52730;SDS011;38624;53.242;6.974;2023-09-18T04:02:54;44.28;;;32.17;;
52730;SDS011;38624;53.242;6.974;2023-09-18T04:05:22;43.50;;;31.23;;
52730;SDS011;38624;53.242;6.974;2023-09-18T04:07:48;44.07;;;30.90;;
52730;SDS011;38624;53.242;6.974;2023-09-18T04:10:16;42.80;;;29.70;;
52730;SDS011;38624;53.242;6.974;2023-09-18T04:12:48;42.88;;;30.02;;
52730;SDS011;38624;53.242;6.974;2023-09-18T04:15:15;45.10;;;30.48;;
52730;SDS011;38624;53.242;6.974;2023-09-18T04:17:43;45.08;;;30.35;;
52730;SDS011;38624;53.242;6.974;2023-09-18T04:20:10;42.88;;;29.48;;
52730;SDS011;38624;53.242;6.974;2023-09-18T04:22:42;48.30;;;30.08;;
52730;SDS011;38624;53.242;6.974;2023-09-18T04:25:09;42.05;;;30.45;;
52730;SDS011;38624;53.242;6.974;2023-09-18T04:27:36;45.25;;;31.33;;
52730;SDS011;38624;53.242;6.974;2023-09-18T04:30:02;53.70;;;32.77;;
52730;SDS011;38624;53.242;6.974;2023-09-18T04:32:28;42.30;;;29.33;;
52730;SDS011;38624;53.242;6.974;2023-09-18T04:35:02;42.33;;;29.92;;
52730;SDS011;38624;53.242;6.974;2023-09-18T04:37:30;44.63;;;29.08;;
52730;SDS011;38624;53.242;6.974;2023-09-18T04:39:57;47.17;;;29.87;;
52730;SDS011;38624;53.242;6.974;2023-09-18T04:42:25;42.17;;;30.08;;
52730;SDS011;38624;53.242;6.974;2023-09-18T04:44:53;40.55;;;29.65;;
52730;SDS011;38624;53.242;6.974;2023-09-18T04:47:19;40.80;;;29.13;;
52730;SDS011;38624;53.242;6.974;2023-09-18T04:49:47;46.57;;;30.63;;
52730;SDS011;38624;53.242;6.974;2023-09-18T04:52:15;43.08;;;29.17;;
52730;SDS011;38624;53.242;6.974;2023-09-18T04:54:44;45.72;;;30.27;;
52730;SDS011;38624;53.242;6.974;2023-09-18T04:57:10;47.90;;;31.00;;
52730;SDS011;38624;53.242;6.974;2023-09-18T04:59:36;44.15;;;29.60;;
52730;SDS011;38624;53.242;6.974;2023-09-18T05:02:04;44.67;;;30.15;;
52730;SDS011;38624;53.242;6.974;2023-09-18T05:04:32;45.88;;;28.67;;
52730;SDS011;38624;53.242;6.974;2023-09-18T05:06:58;42.20;;;29.40;;
52730;SDS011;38624;53.242;6.974;2023-09-18T05:09:26;39.22;;;27.58;;
52730;SDS011;38624;53.242;6.974;2023-09-18T05:11:52;45.00;;;28.07;;
52730;SDS011;38624;53.242;6.974;2023-09-18T05:14:20;37.92;;;27.08;;
52730;SDS011;38624;53.242;6.974;2023-09-18T05:16:46;41.40;;;27.73;;
52730;SDS011;38624;53.242;6.974;2023-09-18T05:19:12;35.13;;;25.00;;
52730;SDS011;38624;53.242;6.974;2023-09-18T05:21:38;37.57;;;25.37;;
52730;SDS011;38624;53.242;6.974;2023-09-18T05:24:04;35.37;;;24.37;;
52730;SDS011;38624;53.242;6.974;2023-09-18T05:26:30;35.92;;;25.58;;
52730;SDS011;38624;53.242;6.974;2023-09-18T05:28:56;32.20;;;23.95;;
52730;SDS011;38624;53.242;6.974;2023-09-18T05:31:22;36.30;;;25.88;;
52730;SDS011;38624;53.242;6.974;2023-09-18T05:36:15;36.95;;;24.30;;
52730;SDS011;38624;53.242;6.974;2023-09-18T05:38:41;31.03;;;22.27;;
52730;SDS011;38624;53.242;6.974;2023-09-18T05:41:08;34.60;;;22.98;;
52730;SDS011;38624;53.242;6.974;2023-09-18T05:43:35;32.65;;;23.23;;
52730;SDS011;38624;53.242;6.974;2023-09-18T05:46:02;31.67;;;22.27;;
52730;SDS011;38624;53.242;6.974;2023-09-18T05:50:53;31.63;;;21.88;;
52730;SDS011;38624;53.242;6.974;2023-09-18T05:53:22;33.70;;;22.45;;
52730;SDS011;38624;53.242;6.974;2023-09-18T05:55:50;31.13;;;21.43;;
52730;SDS011;38624;53.242;6.974;2023-09-18T05:58:16;29.73;;;20.83;;
52730;SDS011;38624;53.242;6.974;2023-09-18T06:00:44;29.48;;;21.50;;
52730;SDS011;38624;53.242;6.974;2023-09-18T06:03:11;32.00;;;21.17;;
52730;SDS011;38624;53.242;6.974;2023-09-18T06:05:37;27.42;;;20.42;;
52730;SDS011;38624;53.242;6.974;2023-09-18T06:08:03;28.97;;;20.63;;
52730;SDS011;38624;53.242;6.974;2023-09-18T06:10:29;28.30;;;20.10;;
52730;SDS011;38624;53.242;6.974;2023-09-18T06:12:55;23.43;;;18.20;;
52730;SDS011;38624;53.242;6.974;2023-09-18T06:15:21;24.63;;;19.00;;
52730;SDS011;38624;53.242;6.974;2023-09-18T06:17:47;25.33;;;17.03;;
52730;SDS011;38624;53.242;6.974;2023-09-18T06:20:12;25.73;;;18.70;;
52730;SDS011;38624;53.242;6.974;2023-09-18T06:22:39;25.43;;;19.30;;
52730;SDS011;38624;53.242;6.974;2023-09-18T06:25:06;26.90;;;18.63;;
52730;SDS011;38624;53.242;6.974;2023-09-18T06:27:39;23.88;;;18.23;;
52730;SDS011;38624;53.242;6.974;2023-09-18T06:30:05;26.23;;;17.60;;
52730;SDS011;38624;53.242;6.974;2023-09-18T06:32:31;24.27;;;17.27;;
52730;SDS011;38624;53.242;6.974;2023-09-18T06:34:57;20.13;;;15.60;;
52730;SDS011;38624;53.242;6.974;2023-09-18T06:37:23;23.30;;;16.63;;
52730;SDS011;38624;53.242;6.974;2023-09-18T06:39:50;25.20;;;16.95;;
52730;SDS011;38624;53.242;6.974;2023-09-18T06:42:16;22.00;;;16.85;;
52730;SDS011;38624;53.242;6.974;2023-09-18T06:44:42;26.08;;;17.05;;
52730;SDS011;38624;53.242;6.974;2023-09-18T06:47:08;22.70;;;15.93;;
52730;SDS011;38624;53.242;6.974;2023-09-18T06:49:34;25.30;;;16.33;;
52730;SDS011;38624;53.242;6.974;2023-09-18T06:52:03;23.98;;;15.85;;
52730;SDS011;38624;53.242;6.974;2023-09-18T06:54:29;25.08;;;16.60;;
52730;SDS011;38624;53.242;6.974;2023-09-18T06:57:00;20.40;;;15.05;;
52730;SDS011;38624;53.242;6.974;2023-09-18T06:59:29;21.02;;;14.77;;
52730;SDS011;38624;53.242;6.974;2023-09-18T07:01:55;21.47;;;14.83;;
52730;SDS011;38624;53.242;6.974;2023-09-18T07:04:23;23.35;;;15.57;;
52730;SDS011;38624;53.242;6.974;2023-09-18T07:06:51;19.35;;;14.55;;
52730;SDS011;38624;53.242;6.974;2023-09-18T07:09:19;19.65;;;13.88;;
52730;SDS011;38624;53.242;6.974;2023-09-18T07:11:48;22.20;;;12.98;;
52730;SDS011;38624;53.242;6.974;2023-09-18T07:14:15;15.73;;;11.25;;
52730;SDS011;38624;53.242;6.974;2023-09-18T07:16:43;20.50;;;11.82;;
52730;SDS011;38624;53.242;6.974;2023-09-18T07:19:11;19.63;;;12.23;;
52730;SDS011;38624;53.242;6.974;2023-09-18T07:21:41;17.35;;;11.85;;
52730;SDS011;38624;53.242;6.974;2023-09-18T07:24:07;16.87;;;12.30;;
52730;SDS011;38624;53.242;6.974;2023-09-18T07:26:35;13.25;;;10.00;;
52730;SDS011;38624;53.242;6.974;2023-09-18T07:29:01;13.43;;;9.40;;
52730;SDS011;38624;53.242;6.974;2023-09-18T07:31:27;22.90;;;12.40;;
52730;SDS011;38624;53.242;6.974;2023-09-18T07:33:54;26.00;;;13.55;;
52730;SDS011;38624;53.242;6.974;2023-09-18T07:36:22;25.08;;;12.05;;
52730;SDS011;38624;53.242;6.974;2023-09-18T07:38:50;29.03;;;14.60;;
52730;SDS011;38624;53.242;6.974;2023-09-18T07:41:16;24.25;;;13.60;;
52730;SDS011;38624;53.242;6.974;2023-09-18T07:43:44;15.65;;;11.43;;
52730;SDS011;38624;53.242;6.974;2023-09-18T07:46:13;15.93;;;11.73;;
52730;SDS011;38624;53.242;6.974;2023-09-18T07:48:42;20.00;;;12.95;;
52730;SDS011;38624;53.242;6.974;2023-09-18T07:51:11;18.73;;;12.10;;
52730;SDS011;38624;53.242;6.974;2023-09-18T07:53:37;18.25;;;13.20;;
52730;SDS011;38624;53.242;6.974;2023-09-18T07:56:04;22.38;;;15.30;;
52730;SDS011;38624;53.242;6.974;2023-09-18T07:58:32;21.48;;;14.82;;
52730;SDS011;38624;53.242;6.974;2023-09-18T08:00:58;26.17;;;16.90;;
52730;SDS011;38624;53.242;6.974;2023-09-18T08:03:27;32.30;;;19.00;;
52730;SDS011;38624;53.242;6.974;2023-09-18T08:05:53;30.83;;;18.48;;
52730;SDS011;38624;53.242;6.974;2023-09-18T08:08:22;26.30;;;17.98;;
52730;SDS011;38624;53.242;6.974;2023-09-18T08:10:51;36.33;;;20.23;;
52730;SDS011;38624;53.242;6.974;2023-09-18T08:13:17;50.95;;;23.60;;
52730;SDS011;38624;53.242;6.974;2023-09-18T08:15:45;40.80;;;23.00;;
52730;SDS011;38624;53.242;6.974;2023-09-18T08:18:13;48.63;;;24.73;;
52730;SDS011;38624;53.242;6.974;2023-09-18T08:20:42;40.40;;;21.20;;
52730;SDS011;38624;53.242;6.974;2023-09-18T08:23:09;36.03;;;20.70;;
52730;SDS011;38624;53.242;6.974;2023-09-18T08:25:38;28.33;;;18.00;;
52730;SDS011;38624;53.242;6.974;2023-09-18T08:28:05;28.92;;;18.63;;
52730;SDS011;38624;53.242;6.974;2023-09-18T08:30:34;23.58;;;15.38;;
52730;SDS011;38624;53.242;6.974;2023-09-18T08:33:05;24.63;;;16.55;;
52730;SDS011;38624;53.242;6.974;2023-09-18T08:35:33;28.73;;;17.55;;
52730;SDS011;38624;53.242;6.974;2023-09-18T08:37:59;23.50;;;15.43;;
52730;SDS011;38624;53.242;6.974;2023-09-18T08:40:27;24.27;;;14.93;;
52730;SDS011;38624;53.242;6.974;2023-09-18T08:42:53;18.63;;;13.20;;
52730;SDS011;38624;53.242;6.974;2023-09-18T08:47:56;22.00;;;13.18;;
52730;SDS011;38624;53.242;6.974;2023-09-18T08:50:25;19.10;;;12.75;;
52730;SDS011;38624;53.242;6.974;2023-09-18T08:52:56;16.00;;;11.23;;
52730;SDS011;38624;53.242;6.974;2023-09-18T08:55:23;21.02;;;14.00;;
52730;SDS011;38624;53.242;6.974;2023-09-18T08:57:49;19.77;;;13.15;;
52730;SDS011;38624;53.242;6.974;2023-09-18T09:00:17;24.70;;;14.25;;
52730;SDS011;38624;53.242;6.974;2023-09-18T09:02:43;16.40;;;11.07;;
52730;SDS011;38624;53.242;6.974;2023-09-18T09:07:35;20.75;;;13.32;;
52730;SDS011;38624;53.242;6.974;2023-09-18T09:10:04;17.92;;;12.85;;
52730;SDS011;38624;53.242;6.974;2023-09-18T09:15:19;20.00;;;12.43;;
52730;SDS011;38624;53.242;6.974;2023-09-18T09:17:45;28.27;;;15.07;;
52730;SDS011;38624;53.242;6.974;2023-09-18T09:20:12;23.73;;;13.82;;
52730;SDS011;38624;53.242;6.974;2023-09-18T09:22:39;30.50;;;14.98;;
52730;SDS011;38624;53.242;6.974;2023-09-18T09:25:22;18.65;;;13.20;;
52730;SDS011;38624;53.242;6.974;2023-09-18T09:27:51;21.50;;;13.68;;
52730;SDS011;38624;53.242;6.974;2023-09-18T09:30:19;23.08;;;14.38;;
52730;SDS011;38624;53.242;6.974;2023-09-18T09:32:52;24.27;;;15.38;;
52730;SDS011;38624;53.242;6.974;2023-09-18T09:35:31;28.83;;;15.82;;
52730;SDS011;38624;53.242;6.974;2023-09-18T09:38:02;28.25;;;15.75;;
52730;SDS011;38624;53.242;6.974;2023-09-18T09:40:36;21.10;;;14.10;;
52730;SDS011;38624;53.242;6.974;2023-09-18T09:43:08;19.50;;;13.57;;
52730;SDS011;38624;53.242;6.974;2023-09-18T09:45:38;25.83;;;16.02;;
52730;SDS011;38624;53.242;6.974;2023-09-18T09:48:06;24.77;;;16.38;;
52730;SDS011;38624;53.242;6.974;2023-09-18T09:50:33;32.40;;;18.40;;
52730;SDS011;38624;53.242;6.974;2023-09-18T09:53:09;33.22;;;18.45;;
52730;SDS011;38624;53.242;6.974;2023-09-18T09:55:35;25.93;;;17.60;;
52730;SDS011;38624;53.242;6.974;2023-09-18T09:58:02;28.63;;;18.27;;
52730;SDS011;38624;53.242;6.974;2023-09-18T10:00:33;29.65;;;19.13;;
52730;SDS011;38624;53.242;6.974;2023-09-18T10:03:14;26.13;;;18.80;;
52730;SDS011;38624;53.242;6.974;2023-09-18T10:05:45;30.33;;;19.80;;
52730;SDS011;38624;53.242;6.974;2023-09-18T10:10:47;28.73;;;19.40;;
52730;SDS011;38624;53.242;6.974;2023-09-18T10:13:22;29.13;;;18.10;;
52730;SDS011;38624;53.242;6.974;2023-09-18T10:15:54;21.90;;;15.68;;
52730;SDS011;38624;53.242;6.974;2023-09-18T10:26:25;19.08;;;15.85;;
52730;SDS011;38624;53.242;6.974;2023-09-18T10:28:54;17.17;;;14.20;;
52730;SDS011;38624;53.242;6.974;2023-09-18T10:31:27;19.10;;;13.48;;
52730;SDS011;38624;53.242;6.974;2023-09-18T10:33:57;20.25;;;15.23;;
52730;SDS011;38624;53.242;6.974;2023-09-18T10:36:25;13.60;;;11.77;;
52730;SDS011;38624;53.242;6.974;2023-09-18T10:38:51;18.02;;;14.73;;
52730;SDS011;38624;53.242;6.974;2023-09-18T10:41:20;15.48;;;13.25;;
52730;SDS011;38624;53.242;6.974;2023-09-18T10:43:47;16.10;;;11.57;;
52730;SDS011;38624;53.242;6.974;2023-09-18T10:46:17;16.30;;;10.38;;
52730;SDS011;38624;53.242;6.974;2023-09-18T10:48:45;15.63;;;10.98;;
52730;SDS011;38624;53.242;6.974;2023-09-18T10:51:21;13.20;;;9.52;;
52730;SDS011;38624;53.242;6.974;2023-09-18T10:53:49;13.30;;;10.00;;
52730;SDS011;38624;53.242;6.974;2023-09-18T10:56:15;10.43;;;9.27;;
52730;SDS011;38624;53.242;6.974;2023-09-18T10:58:44;11.95;;;9.23;;
52730;SDS011;38624;53.242;6.974;2023-09-18T11:01:13;11.53;;;8.50;;
52730;SDS011;38624;53.242;6.974;2023-09-18T11:03:39;12.35;;;10.25;;
52730;SDS011;38624;53.242;6.974;2023-09-18T11:06:12;17.95;;;13.98;;
52730;SDS011;38624;53.242;6.974;2023-09-18T11:08:44;14.82;;;9.60;;
52730;SDS011;38624;53.242;6.974;2023-09-18T11:11:12;10.90;;;9.52;;
52730;SDS011;38624;53.242;6.974;2023-09-18T11:13:46;13.88;;;9.00;;
52730;SDS011;38624;53.242;6.974;2023-09-18T11:18:50;11.13;;;8.88;;
52730;SDS011;38624;53.242;6.974;2023-09-18T11:21:26;10.85;;;6.70;;
52730;SDS011;38624;53.242;6.974;2023-09-18T11:26:44;8.25;;;6.97;;
52730;SDS011;38624;53.242;6.974;2023-09-18T11:29:14;10.40;;;7.15;;
52730;SDS011;38624;53.242;6.974;2023-09-18T11:31:51;9.50;;;6.85;;
52730;SDS011;38624;53.242;6.974;2023-09-18T11:34:28;8.85;;;7.03;;
52730;SDS011;38624;53.242;6.974;2023-09-18T11:37:00;7.95;;;7.15;;
52730;SDS011;38624;53.242;6.974;2023-09-18T11:39:44;10.45;;;7.45;;
52730;SDS011;38624;53.242;6.974;2023-09-18T11:44:36;10.07;;;6.25;;
52730;SDS011;38624;53.242;6.974;2023-09-18T11:47:10;18.58;;;6.75;;
52730;SDS011;38624;53.242;6.974;2023-09-18T11:49:57;9.18;;;6.47;;
52730;SDS011;38624;53.242;6.974;2023-09-18T11:52:24;8.45;;;6.15;;
52730;SDS011;38624;53.242;6.974;2023-09-18T11:54:58;6.28;;;5.22;;
52730;SDS011;38624;53.242;6.974;2023-09-18T11:57:24;6.55;;;4.88;;
52730;SDS011;38624;53.242;6.974;2023-09-18T11:59:50;8.68;;;6.13;;
52730;SDS011;38624;53.242;6.974;2023-09-18T12:02:26;7.32;;;5.68;;
52730;SDS011;38624;53.242;6.974;2023-09-18T12:04:56;6.82;;;5.45;;
52730;SDS011;38624;53.242;6.974;2023-09-18T12:07:22;5.70;;;4.95;;
52730;SDS011;38624;53.242;6.974;2023-09-18T12:09:49;5.85;;;5.00;;
52730;SDS011;38624;53.242;6.974;2023-09-18T12:12:15;6.18;;;4.95;;
52730;SDS011;38624;53.242;6.974;2023-09-18T12:14:42;8.95;;;5.22;;
52730;SDS011;38624;53.242;6.974;2023-09-18T12:17:09;9.27;;;5.30;;
52730;SDS011;38624;53.242;6.974;2023-09-18T12:19:49;9.15;;;4.88;;
52730;SDS011;38624;53.242;6.974;2023-09-18T12:22:29;5.97;;;4.65;;
52730;SDS011;38624;53.242;6.974;2023-09-18T12:25:21;12.50;;;4.68;;
52730;SDS011;38624;53.242;6.974;2023-09-18T12:27:56;8.60;;;4.85;;
52730;SDS011;38624;53.242;6.974;2023-09-18T12:30:27;7.20;;;5.18;;
52730;SDS011;38624;53.242;6.974;2023-09-18T12:32:59;6.38;;;4.90;;
52730;SDS011;38624;53.242;6.974;2023-09-18T12:35:30;8.80;;;5.60;;
52730;SDS011;38624;53.242;6.974;2023-09-18T12:38:03;6.78;;;5.05;;
52730;SDS011;38624;53.242;6.974;2023-09-18T12:40:41;10.98;;;6.15;;
52730;SDS011;38624;53.242;6.974;2023-09-18T12:43:09;10.30;;;5.75;;
52730;SDS011;38624;53.242;6.974;2023-09-18T12:45:36;7.45;;;6.50;;
52730;SDS011;38624;53.242;6.974;2023-09-18T12:48:03;10.75;;;5.28;;
52730;SDS011;38624;53.242;6.974;2023-09-18T12:50:31;8.32;;;5.85;;
52730;SDS011;38624;53.242;6.974;2023-09-18T12:53:13;8.70;;;5.05;;
52730;SDS011;38624;53.242;6.974;2023-09-18T12:55:40;9.02;;;5.25;;
52730;SDS011;38624;53.242;6.974;2023-09-18T12:58:11;9.82;;;5.47;;
52730;SDS011;38624;53.242;6.974;2023-09-18T13:00:44;7.95;;;5.78;;
52730;SDS011;38624;53.242;6.974;2023-09-18T13:03:12;7.93;;;5.63;;
52730;SDS011;38624;53.242;6.974;2023-09-18T13:05:41;6.28;;;4.32;;
52730;SDS011;38624;53.242;6.974;2023-09-18T13:08:07;8.73;;;4.80;;
52730;SDS011;38624;53.242;6.974;2023-09-18T13:10:41;7.18;;;4.20;;
52730;SDS011;38624;53.242;6.974;2023-09-18T13:13:56;5.38;;;4.25;;
52730;SDS011;38624;53.242;6.974;2023-09-18T13:16:23;6.38;;;4.60;;
52730;SDS011;38624;53.242;6.974;2023-09-18T13:18:49;7.13;;;4.68;;
52730;SDS011;38624;53.242;6.974;2023-09-18T13:21:15;6.47;;;4.73;;
52730;SDS011;38624;53.242;6.974;2023-09-18T13:29:48;7.27;;;4.27;;
52730;SDS011;38624;53.242;6.974;2023-09-18T13:32:16;4.93;;;4.00;;
52730;SDS011;38624;53.242;6.974;2023-09-18T13:34:42;7.80;;;4.38;;
52730;SDS011;38624;53.242;6.974;2023-09-18T13:37:10;5.40;;;4.32;;
52730;SDS011;38624;53.242;6.974;2023-09-18T13:39:39;4.47;;;4.07;;
52730;SDS011;38624;53.242;6.974;2023-09-18T13:42:04;7.25;;;3.75;;
52730;SDS011;38624;53.242;6.974;2023-09-18T13:44:33;6.97;;;4.38;;
52730;SDS011;38624;53.242;6.974;2023-09-18T13:47:02;7.10;;;4.65;;
52730;SDS011;38624;53.242;6.974;2023-09-18T13:49:31;6.43;;;4.05;;
52730;SDS011;38624;53.242;6.974;2023-09-18T13:51:57;8.35;;;3.83;;
52730;SDS011;38624;53.242;6.974;2023-09-18T13:54:27;6.20;;;4.30;;
52730;SDS011;38624;53.242;6.974;2023-09-18T13:56:56;9.00;;;4.38;;
52730;SDS011;38624;53.242;6.974;2023-09-18T13:59:22;6.07;;;4.22;;
52730;SDS011;38624;53.242;6.974;2023-09-18T14:01:47;6.73;;;4.03;;
52730;SDS011;38624;53.242;6.974;2023-09-18T14:04:17;6.75;;;3.75;;
52730;SDS011;38624;53.242;6.974;2023-09-18T14:06:42;5.73;;;3.83;;
52730;SDS011;38624;53.242;6.974;2023-09-18T14:09:08;6.83;;;3.90;;
52730;SDS011;38624;53.242;6.974;2023-09-18T14:11:37;7.40;;;3.95;;
52730;SDS011;38624;53.242;6.974;2023-09-18T14:14:03;5.18;;;4.13;;
52730;SDS011;38624;53.242;6.974;2023-09-18T14:16:29;11.73;;;4.80;;
52730;SDS011;38624;53.242;6.974;2023-09-18T14:18:58;13.82;;;4.28;;
52730;SDS011;38624;53.242;6.974;2023-09-18T14:21:34;6.80;;;4.53;;
52730;SDS011;38624;53.242;6.974;2023-09-18T14:24:01;4.50;;;3.67;;
52730;SDS011;38624;53.242;6.974;2023-09-18T14:26:27;7.90;;;4.10;;
52730;SDS011;38624;53.242;6.974;2023-09-18T14:28:56;5.75;;;4.20;;
52730;SDS011;38624;53.242;6.974;2023-09-18T14:31:22;11.77;;;4.60;;
52730;SDS011;38624;53.242;6.974;2023-09-18T14:33:48;6.60;;;3.90;;
52730;SDS011;38624;53.242;6.974;2023-09-18T14:36:16;6.45;;;4.03;;
52730;SDS011;38624;53.242;6.974;2023-09-18T14:38:42;7.70;;;4.40;;
52730;SDS011;38624;53.242;6.974;2023-09-18T14:41:08;9.27;;;4.80;;
52730;SDS011;38624;53.242;6.974;2023-09-18T14:43:34;5.97;;;4.60;;
52730;SDS011;38624;53.242;6.974;2023-09-18T14:46:03;6.97;;;4.32;;
52730;SDS011;38624;53.242;6.974;2023-09-18T14:48:29;8.20;;;4.85;;
52730;SDS011;38624;53.242;6.974;2023-09-18T14:50:56;7.35;;;4.03;;
52730;SDS011;38624;53.242;6.974;2023-09-18T14:53:22;5.45;;;4.00;;
52730;SDS011;38624;53.242;6.974;2023-09-18T14:55:48;6.73;;;4.43;;
52730;SDS011;38624;53.242;6.974;2023-09-18T14:58:14;6.45;;;4.50;;
52730;SDS011;38624;53.242;6.974;2023-09-18T15:00:39;4.70;;;4.20;;
52730;SDS011;38624;53.242;6.974;2023-09-18T15:03:05;7.13;;;4.43;;
52730;SDS011;38624;53.242;6.974;2023-09-18T15:05:31;7.20;;;4.50;;
52730;SDS011;38624;53.242;6.974;2023-09-18T15:07:56;6.00;;;3.80;;
52730;SDS011;38624;53.242;6.974;2023-09-18T15:10:22;6.40;;;4.03;;
52730;SDS011;38624;53.242;6.974;2023-09-18T15:12:48;8.23;;;4.30;;
52730;SDS011;38624;53.242;6.974;2023-09-18T15:15:13;5.43;;;4.00;;
52730;SDS011;38624;53.242;6.974;2023-09-18T15:17:39;6.57;;;3.87;;
52730;SDS011;38624;53.242;6.974;2023-09-18T15:20:05;6.30;;;4.17;;
52730;SDS011;38624;53.242;6.974;2023-09-18T15:22:31;10.00;;;4.13;;
52730;SDS011;38624;53.242;6.974;2023-09-18T15:24:57;4.57;;;4.10;;